sensor_id;sensor_type;location;lat;lon;timestamp;pressure;altitude;pressure_sealevel;temperature;humidity
1652;BME280;823;49.028;8.454;2023-01-24T00:03:23;102001.97;;;6.39;54.92
1652;BME280;823;49.028;8.454;2023-01-24T00:08:23;102000.19;;;6.33;55.26
1652;BME280;823;49.028;8.454;2023-01-24T00:13:24;101997.78;;;6.52;54.64
1652;BME280;823;49.028;8.454;2023-01-24T00:18:24;102000.34;;;6.50;54.74
1652;BME280;823;49.028;8.454;2023-01-24T00:23:24;102001.28;;;6.55;54.59
1652;BME280;823;49.028;8.454;2023-01-24T00:28:24;101996.69;;;6.26;54.90
1652;BME280;823;49.028;8.454;2023-01-24T00:33:25;101995.94;;;6.38;54.79
1652;BME280;823;49.028;8.454;2023-01-24T00:38:27;102001.94;;;6.36;54.85
1652;BME280;823;49.028;8.454;2023-01-24T00:43:28;102000.34;;;6.50;54.42
1652;BME280;823;49.028;8.454;2023-01-24T00:48:28;102019.16;;;5.75;56.00
1652;BME280;823;49.028;8.454;2023-01-24T00:53:29;102008.84;;;6.40;54.88
1652;BME280;823;49.028;8.454;2023-01-24T00:58:29;102006.25;;;6.40;54.56
1652;BME280;823;49.028;8.454;2023-01-24T01:03:30;102016.31;;;6.20;55.26
1652;BME280;823;49.028;8.454;2023-01-24T01:08:31;102012.38;;;6.51;54.26
1652;BME280;823;49.028;8.454;2023-01-24T01:13:31;102013.22;;;6.52;54.35
1652;BME280;823;49.028;8.454;2023-01-24T01:18:32;102026.69;;;6.29;55.04
1652;BME280;823;49.028;8.454;2023-01-24T01:23:33;102029.19;;;6.24;55.19
1652;BME280;823;49.028;8.454;2023-01-24T01:28:33;102012.09;;;6.26;54.94
1652;BME280;823;49.028;8.454;2023-01-24T01:33:33;102018.97;;;6.27;54.97
1652;BME280;823;49.028;8.454;2023-01-24T01:38:34;102022.25;;;6.16;55.09
1652;BME280;823;49.028;8.454;2023-01-24T01:43:34;102025.78;;;6.24;54.91
1652;BME280;823;49.028;8.454;2023-01-24T01:48:39;102018.88;;;6.18;55.34
1652;BME280;823;49.028;8.454;2023-01-24T01:53:50;102023.19;;;6.21;55.06
1652;BME280;823;49.028;8.454;2023-01-24T01:58:53;102020.66;;;6.27;55.27
1652;BME280;823;49.028;8.454;2023-01-24T02:04:02;102020.28;;;5.96;55.41
1652;BME280;823;49.028;8.454;2023-01-24T02:09:07;102031.97;;;6.40;54.87
1652;BME280;823;49.028;8.454;2023-01-24T02:14:13;102043.09;;;6.39;54.68
1652;BME280;823;49.028;8.454;2023-01-24T02:25:36;102044.00;;;6.45;54.55
1652;BME280;823;49.028;8.454;2023-01-24T02:30:38;102045.63;;;6.37;54.76
1652;BME280;823;49.028;8.454;2023-01-24T02:35:38;102046.28;;;6.18;55.36
1652;BME280;823;49.028;8.454;2023-01-24T02:40:39;102055.91;;;6.37;55.08
1652;BME280;823;49.028;8.454;2023-01-24T02:45:40;102048.22;;;6.39;55.41
1652;BME280;823;49.028;8.454;2023-01-24T02:50:40;102061.59;;;6.10;55.72
1652;BME280;823;49.028;8.454;2023-01-24T02:56:01;102060.84;;;6.20;55.22
1652;BME280;823;49.028;8.454;2023-01-24T03:01:22;102054.72;;;6.09;55.80
1652;BME280;823;49.028;8.454;2023-01-24T03:06:22;102054.22;;;6.39;55.05
1652;BME280;823;49.028;8.454;2023-01-24T03:11:23;102065.28;;;6.32;55.24
1652;BME280;823;49.028;8.454;2023-01-24T03:16:24;102055.75;;;6.22;55.49
1652;BME280;823;49.028;8.454;2023-01-24T03:21:43;102049.03;;;6.36;55.13
1652;BME280;823;49.028;8.454;2023-01-24T03:27:02;102054.13;;;6.30;55.45
1652;BME280;823;49.028;8.454;2023-01-24T03:32:21;102053.38;;;6.40;54.88
1652;BME280;823;49.028;8.454;2023-01-24T03:37:40;102064.50;;;6.41;55.02
1652;BME280;823;49.028;8.454;2023-01-24T03:42:59;102061.03;;;6.34;55.21
1652;BME280;823;49.028;8.454;2023-01-24T03:48:02;102048.00;;;6.20;55.57
1652;BME280;823;49.028;8.454;2023-01-24T03:53:05;102044.56;;;6.18;55.73
1652;BME280;823;49.028;8.454;2023-01-24T03:58:06;102045.63;;;6.37;55.28
1652;BME280;823;49.028;8.454;2023-01-24T04:03:07;102046.44;;;6.32;55.39
1652;BME280;823;49.028;8.454;2023-01-24T04:08:07;102044.44;;;6.09;56.06
1652;BME280;823;49.028;8.454;2023-01-24T04:13:09;102051.50;;;6.28;55.12
1652;BME280;823;49.028;8.454;2023-01-24T04:18:09;102049.06;;;6.39;55.21
1652;BME280;823;49.028;8.454;2023-01-24T04:23:11;102053.38;;;6.39;55.20
1652;BME280;823;49.028;8.454;2023-01-24T04:28:12;102051.63;;;6.38;55.17
1652;BME280;823;49.028;8.454;2023-01-24T04:33:12;102049.84;;;6.30;55.53
1652;BME280;823;49.028;8.454;2023-01-24T04:38:12;102048.19;;;6.34;55.17
1652;BME280;823;49.028;8.454;2023-01-24T04:43:12;102052.59;;;6.49;55.04
1652;BME280;823;49.028;8.454;2023-01-24T04:48:13;102058.50;;;6.39;55.10
1652;BME280;823;49.028;8.454;2023-01-24T04:53:13;102061.75;;;6.25;55.57
1652;BME280;823;49.028;8.454;2023-01-24T04:58:13;102065.97;;;6.19;55.58
1652;BME280;823;49.028;8.454;2023-01-24T05:03:14;102065.16;;;6.24;55.17
1652;BME280;823;49.028;8.454;2023-01-24T05:08:14;102067.34;;;5.93;56.00
1652;BME280;823;49.028;8.454;2023-01-24T05:13:14;102078.03;;;6.24;55.61
1652;BME280;823;49.028;8.454;2023-01-24T05:18:15;102082.34;;;6.27;55.36
1652;BME280;823;49.028;8.454;2023-01-24T05:23:16;102072.22;;;6.42;54.97
1652;BME280;823;49.028;8.454;2023-01-24T05:28:16;102079.09;;;6.42;54.95
1652;BME280;823;49.028;8.454;2023-01-24T05:33:16;102091.16;;;6.51;54.83
1652;BME280;823;49.028;8.454;2023-01-24T05:38:17;102089.34;;;6.39;54.82
1652;BME280;823;49.028;8.454;2023-01-24T05:43:17;102092.97;;;6.56;54.43
1652;BME280;823;49.028;8.454;2023-01-24T05:48:17;102101.59;;;6.64;54.09
1652;BME280;823;49.028;8.454;2023-01-24T05:53:17;102107.59;;;6.62;54.61
1652;BME280;823;49.028;8.454;2023-01-24T05:58:18;102097.91;;;6.41;55.05
1652;BME280;823;49.028;8.454;2023-01-24T06:03:18;102108.19;;;6.39;54.81
1652;BME280;823;49.028;8.454;2023-01-24T06:08:20;102115.97;;;6.44;54.96
1652;BME280;823;49.028;8.454;2023-01-24T06:13:20;102123.84;;;6.58;54.80
1652;BME280;823;49.028;8.454;2023-01-24T06:18:20;102134.78;;;6.40;55.10
1652;BME280;823;49.028;8.454;2023-01-24T06:23:26;102126.94;;;6.30;55.34
1652;BME280;823;49.028;8.454;2023-01-24T06:28:27;102131.16;;;6.25;55.46
1652;BME280;823;49.028;8.454;2023-01-24T06:33:37;102138.13;;;6.34;55.23
1652;BME280;823;49.028;8.454;2023-01-24T06:38:40;102149.94;;;6.23;55.45
1652;BME280;823;49.028;8.454;2023-01-24T06:43:41;102152.63;;;6.30;55.42
1652;BME280;823;49.028;8.454;2023-01-24T06:48:43;102149.91;;;6.20;55.75
1652;BME280;823;49.028;8.454;2023-01-24T06:53:44;102146.63;;;6.30;55.57
1652;BME280;823;49.028;8.454;2023-01-24T06:58:44;102160.13;;;6.13;55.89
1652;BME280;823;49.028;8.454;2023-01-24T07:03:44;102156.91;;;6.30;55.51
1652;BME280;823;49.028;8.454;2023-01-24T07:08:45;102162.41;;;6.56;54.82
1652;BME280;823;49.028;8.454;2023-01-24T07:13:45;102172.56;;;6.48;55.04
1652;BME280;823;49.028;8.454;2023-01-24T07:18:45;102172.47;;;6.42;55.09
1652;BME280;823;49.028;8.454;2023-01-24T07:23:47;102165.38;;;6.24;55.71
1652;BME280;823;49.028;8.454;2023-01-24T07:28:48;102175.81;;;6.37;55.02
1652;BME280;823;49.028;8.454;2023-01-24T07:33:48;102173.22;;;6.32;55.50
1652;BME280;823;49.028;8.454;2023-01-24T07:38:53;102178.28;;;6.27;55.86
1652;BME280;823;49.028;8.454;2023-01-24T07:43:55;102178.50;;;6.43;55.35
1652;BME280;823;49.028;8.454;2023-01-24T07:48:55;102176.72;;;6.39;55.28
1652;BME280;823;49.028;8.454;2023-01-24T07:53:55;102188.81;;;6.47;55.15
1652;BME280;823;49.028;8.454;2023-01-24T07:58:57;102186.28;;;6.51;55.16
1652;BME280;823;49.028;8.454;2023-01-24T08:03:58;102196.50;;;6.43;55.47
1652;BME280;823;49.028;8.454;2023-01-24T08:08:58;102204.22;;;6.46;55.55
1652;BME280;823;49.028;8.454;2023-01-24T08:13:59;102205.19;;;6.54;55.09
1652;BME280;823;49.028;8.454;2023-01-24T08:18:59;102217.84;;;6.37;55.67
1652;BME280;823;49.028;8.454;2023-01-24T08:24:00;102214.38;;;6.35;55.62
1652;BME280;823;49.028;8.454;2023-01-24T08:29:00;102228.19;;;6.45;55.54
1652;BME280;823;49.028;8.454;2023-01-24T08:34:00;102215.09;;;6.26;55.91
1652;BME280;823;49.028;8.454;2023-01-24T08:39:00;102210.41;;;6.60;55.00
1652;BME280;823;49.028;8.454;2023-01-24T08:44:03;102223.31;;;6.62;55.10
1652;BME280;823;49.028;8.454;2023-01-24T08:49:04;102242.00;;;6.50;55.59
1652;BME280;823;49.028;8.454;2023-01-24T08:54:05;102244.16;;;6.21;56.20
1652;BME280;823;49.028;8.454;2023-01-24T08:59:06;102245.41;;;6.49;55.51
1652;BME280;823;49.028;8.454;2023-01-24T09:04:07;102243.59;;;6.42;56.12
1652;BME280;823;49.028;8.454;2023-01-24T09:09:07;102256.56;;;6.50;55.63
1652;BME280;823;49.028;8.454;2023-01-24T09:14:07;102261.78;;;6.56;55.32
1652;BME280;823;49.028;8.454;2023-01-24T09:19:10;102260.94;;;6.58;55.41
1652;BME280;823;49.028;8.454;2023-01-24T09:24:11;102258.59;;;6.75;55.00
1652;BME280;823;49.028;8.454;2023-01-24T09:29:11;102262.09;;;6.80;54.98
1652;BME280;823;49.028;8.454;2023-01-24T09:34:11;102267.84;;;6.61;55.08
1652;BME280;823;49.028;8.454;2023-01-24T09:39:12;102266.25;;;6.71;54.87
1652;BME280;823;49.028;8.454;2023-01-24T09:44:22;102270.47;;;6.65;55.03
1652;BME280;823;49.028;8.454;2023-01-24T09:49:40;102267.03;;;6.62;54.94
1652;BME280;823;49.028;8.454;2023-01-24T09:54:50;102276.63;;;6.77;54.79
1652;BME280;823;49.028;8.454;2023-01-24T09:59:57;102268.00;;;6.72;54.58
1652;BME280;823;49.028;8.454;2023-01-24T10:04:58;102269.53;;;6.60;55.21
1652;BME280;823;49.028;8.454;2023-01-24T10:15:37;102263.06;;;6.87;54.45
1652;BME280;823;49.028;8.454;2023-01-24T10:21:00;102261.41;;;6.94;54.45
1652;BME280;823;49.028;8.454;2023-01-24T10:26:20;102251.28;;;7.06;54.17
1652;BME280;823;49.028;8.454;2023-01-24T10:31:56;102256.50;;;7.14;53.81
1652;BME280;823;49.028;8.454;2023-01-24T10:42:26;102252.88;;;6.96;54.26
1652;BME280;823;49.028;8.454;2023-01-24T10:47:49;102247.09;;;7.18;53.90
1652;BME280;823;49.028;8.454;2023-01-24T10:53:11;102249.56;;;7.08;54.01
1652;BME280;823;49.028;8.454;2023-01-24T10:58:36;102251.34;;;7.15;54.02
1652;BME280;823;49.028;8.454;2023-01-24T11:03:39;102242.03;;;7.25;53.60
1652;BME280;823;49.028;8.454;2023-01-24T11:08:40;102246.31;;;7.23;53.96
1652;BME280;823;49.028;8.454;2023-01-24T11:13:40;102260.22;;;7.41;53.47
1652;BME280;823;49.028;8.454;2023-01-24T11:19:02;102250.69;;;7.32;53.52
1652;BME280;823;49.028;8.454;2023-01-24T11:29:15;102248.44;;;7.64;52.84
1652;BME280;823;49.028;8.454;2023-01-24T11:34:57;102250.13;;;7.62;52.63
1652;BME280;823;49.028;8.454;2023-01-24T12:01:23;102236.25;;;7.48;53.02
1652;BME280;823;49.028;8.454;2023-01-24T12:06:40;102224.44;;;7.69;52.98
1652;BME280;823;49.028;8.454;2023-01-24T12:22:23;102207.97;;;7.53;53.17
1652;BME280;823;49.028;8.454;2023-01-24T12:27:26;102202.91;;;7.63;52.95
1652;BME280;823;49.028;8.454;2023-01-24T12:37:38;102190.97;;;7.69;52.66
1652;BME280;823;49.028;8.454;2023-01-24T12:48:35;102184.19;;;7.86;52.38
1652;BME280;823;49.028;8.454;2023-01-24T12:53:41;102189.22;;;7.64;52.98
1652;BME280;823;49.028;8.454;2023-01-24T12:58:48;102186.75;;;7.81;52.44
1652;BME280;823;49.028;8.454;2023-01-24T13:09:18;102187.59;;;7.79;52.72
1652;BME280;823;49.028;8.454;2023-01-24T13:14:30;102184.94;;;7.71;52.90
1652;BME280;823;49.028;8.454;2023-01-24T13:35:20;102177.97;;;7.56;52.93
1652;BME280;823;49.028;8.454;2023-01-24T13:40:26;102181.41;;;7.58;52.88
1652;BME280;823;49.028;8.454;2023-01-24T13:50:39;102180.53;;;7.55;53.16
1652;BME280;823;49.028;8.454;2023-01-24T14:00:52;102188.38;;;7.69;53.09
1652;BME280;823;49.028;8.454;2023-01-24T14:16:03;102195.94;;;7.50;53.44
1652;BME280;823;49.028;8.454;2023-01-24T14:21:04;102198.50;;;7.47;53.19
1652;BME280;823;49.028;8.454;2023-01-24T14:26:05;102188.16;;;7.41;53.64
1652;BME280;823;49.028;8.454;2023-01-24T14:31:35;102193.34;;;7.47;53.22
1652;BME280;823;49.028;8.454;2023-01-24T14:36:38;102193.34;;;7.50;53.23
1652;BME280;823;49.028;8.454;2023-01-24T14:41:40;102189.91;;;7.48;53.24
1652;BME280;823;49.028;8.454;2023-01-24T14:46:41;102199.22;;;7.35;53.40
1652;BME280;823;49.028;8.454;2023-01-24T14:51:44;102205.28;;;7.39;53.60
1652;BME280;823;49.028;8.454;2023-01-24T14:56:47;102205.38;;;7.49;53.47
1652;BME280;823;49.028;8.454;2023-01-24T15:01:51;102202.81;;;7.51;53.11
1652;BME280;823;49.028;8.454;2023-01-24T15:07:06;102215.53;;;7.32;53.49
1652;BME280;823;49.028;8.454;2023-01-24T15:12:28;102208.56;;;7.25;53.63
1652;BME280;823;49.028;8.454;2023-01-24T15:17:30;102218.38;;;7.62;53.04
1652;BME280;823;49.028;8.454;2023-01-24T15:22:34;102219.19;;;7.58;53.00
1652;BME280;823;49.028;8.454;2023-01-24T15:27:41;102226.84;;;7.53;53.29
1652;BME280;823;49.028;8.454;2023-01-24T15:32:45;102226.81;;;7.47;53.50
1652;BME280;823;49.028;8.454;2023-01-24T15:37:45;102223.31;;;7.42;53.46
1652;BME280;823;49.028;8.454;2023-01-24T15:42:46;102225.91;;;7.42;53.55
1652;BME280;823;49.028;8.454;2023-01-24T15:48:19;102229.28;;;7.39;53.64
1652;BME280;823;49.028;8.454;2023-01-24T15:53:25;102232.38;;;7.06;54.26
1652;BME280;823;49.028;8.454;2023-01-24T15:58:29;102240.31;;;7.23;54.28
1652;BME280;823;49.028;8.454;2023-01-24T16:03:30;102235.19;;;7.27;54.07
1652;BME280;823;49.028;8.454;2023-01-24T16:08:31;102238.44;;;7.08;54.52
1652;BME280;823;49.028;8.454;2023-01-24T16:13:34;102246.22;;;7.17;54.10
1652;BME280;823;49.028;8.454;2023-01-24T16:18:36;102242.91;;;7.24;53.84
1652;BME280;823;49.028;8.454;2023-01-24T16:23:36;102240.94;;;7.05;54.69
1652;BME280;823;49.028;8.454;2023-01-24T16:28:37;102255.53;;;7.06;54.53
1652;BME280;823;49.028;8.454;2023-01-24T16:33:37;102254.66;;;7.04;54.69
1652;BME280;823;49.028;8.454;2023-01-24T16:38:38;102251.31;;;7.11;54.72
1652;BME280;823;49.028;8.454;2023-01-24T16:43:41;102265.78;;;6.99;54.51
1652;BME280;823;49.028;8.454;2023-01-24T16:48:42;102259.84;;;7.07;54.51
1652;BME280;823;49.028;8.454;2023-01-24T16:53:42;102275.41;;;7.16;54.43
1652;BME280;823;49.028;8.454;2023-01-24T16:58:43;102267.69;;;7.18;54.57
1652;BME280;823;49.028;8.454;2023-01-24T17:03:43;102275.31;;;7.10;54.70
1652;BME280;823;49.028;8.454;2023-01-24T17:08:44;102271.00;;;7.09;54.59
1652;BME280;823;49.028;8.454;2023-01-24T17:13:44;102270.75;;;6.86;54.90
1652;BME280;823;49.028;8.454;2023-01-24T17:18:44;102283.75;;;6.96;54.89
1652;BME280;823;49.028;8.454;2023-01-24T17:23:45;102277.75;;;6.99;54.94
1652;BME280;823;49.028;8.454;2023-01-24T17:28:46;102288.91;;;6.96;54.94
1652;BME280;823;49.028;8.454;2023-01-24T17:33:46;102291.13;;;6.70;55.50
1652;BME280;823;49.028;8.454;2023-01-24T17:38:46;102295.34;;;6.65;55.90
1652;BME280;823;49.028;8.454;2023-01-24T17:43:49;102288.56;;;6.72;55.62
1652;BME280;823;49.028;8.454;2023-01-24T17:48:49;102280.88;;;6.73;55.54
1652;BME280;823;49.028;8.454;2023-01-24T17:53:50;102303.34;;;6.28;56.82
1652;BME280;823;49.028;8.454;2023-01-24T17:58:50;102302.34;;;6.77;55.97
1652;BME280;823;49.028;8.454;2023-01-24T18:03:50;102298.91;;;6.75;55.95
1652;BME280;823;49.028;8.454;2023-01-24T18:08:51;102298.97;;;6.82;55.63
1652;BME280;823;49.028;8.454;2023-01-24T18:13:51;102309.41;;;6.92;55.77
1652;BME280;823;49.028;8.454;2023-01-24T18:18:51;102297.06;;;6.66;56.14
1652;BME280;823;49.028;8.454;2023-01-24T18:23:59;102302.16;;;6.63;56.08
1652;BME280;823;49.028;8.454;2023-01-24T18:29:00;102292.81;;;6.68;56.03
1652;BME280;823;49.028;8.454;2023-01-24T18:34:00;102301.38;;;6.69;56.16
1652;BME280;823;49.028;8.454;2023-01-24T18:39:01;102300.56;;;6.73;56.08
1652;BME280;823;49.028;8.454;2023-01-24T18:44:01;102292.97;;;6.80;55.49
1652;BME280;823;49.028;8.454;2023-01-24T18:49:03;102297.38;;;6.91;55.37
1652;BME280;823;49.028;8.454;2023-01-24T18:54:03;102294.69;;;6.81;55.61
1652;BME280;823;49.028;8.454;2023-01-24T18:59:06;102288.75;;;6.84;55.46
1652;BME280;823;49.028;8.454;2023-01-24T19:04:06;102294.56;;;6.71;55.80
1652;BME280;823;49.028;8.454;2023-01-24T19:09:08;102292.00;;;6.72;55.86
1652;BME280;823;49.028;8.454;2023-01-24T19:14:10;102294.25;;;6.49;56.33
1652;BME280;823;49.028;8.454;2023-01-24T19:19:13;102291.78;;;6.55;56.00
1652;BME280;823;49.028;8.454;2023-01-24T19:24:13;102279.09;;;6.68;55.74
1652;BME280;823;49.028;8.454;2023-01-24T19:29:14;102285.72;;;6.53;56.41
1652;BME280;823;49.028;8.454;2023-01-24T19:34:14;102274.56;;;6.50;56.43
1652;BME280;823;49.028;8.454;2023-01-24T19:39:14;102280.84;;;6.72;56.22
1652;BME280;823;49.028;8.454;2023-01-24T19:44:14;102286.84;;;6.72;56.08
1652;BME280;823;49.028;8.454;2023-01-24T19:49:16;102274.81;;;6.70;55.94
1652;BME280;823;49.028;8.454;2023-01-24T19:54:16;102277.50;;;6.77;55.94
1652;BME280;823;49.028;8.454;2023-01-24T19:59:17;102276.22;;;6.46;56.61
1652;BME280;823;49.028;8.454;2023-01-24T20:04:17;102267.03;;;6.62;56.15
1652;BME280;823;49.028;8.454;2023-01-24T20:09:17;102276.44;;;6.64;55.90
1652;BME280;823;49.028;8.454;2023-01-24T20:14:18;102286.63;;;6.55;56.23
1652;BME280;823;49.028;8.454;2023-01-24T20:19:18;102291.84;;;6.61;55.95
1652;BME280;823;49.028;8.454;2023-01-24T20:24:19;102278.19;;;6.65;55.99
1652;BME280;823;49.028;8.454;2023-01-24T20:29:19;102279.69;;;6.48;56.18
1652;BME280;823;49.028;8.454;2023-01-24T20:34:20;102288.31;;;6.53;56.29
1652;BME280;823;49.028;8.454;2023-01-24T20:39:20;102292.38;;;6.37;56.44
1652;BME280;823;49.028;8.454;2023-01-24T20:44:20;102294.06;;;6.38;56.48
1652;BME280;823;49.028;8.454;2023-01-24T20:49:21;102293.41;;;6.52;55.89
1652;BME280;823;49.028;8.454;2023-01-24T20:54:22;102292.28;;;6.33;56.25
1652;BME280;823;49.028;8.454;2023-01-24T20:59:23;102291.59;;;6.43;56.01
1652;BME280;823;49.028;8.454;2023-01-24T21:04:23;102300.31;;;6.53;55.65
1652;BME280;823;49.028;8.454;2023-01-24T21:09:23;102300.13;;;6.42;55.68
1652;BME280;823;49.028;8.454;2023-01-24T21:14:24;102302.72;;;6.43;55.89
1652;BME280;823;49.028;8.454;2023-01-24T21:19:24;102299.28;;;6.41;55.94
1652;BME280;823;49.028;8.454;2023-01-24T21:24:26;102293.16;;;6.33;56.01
1652;BME280;823;49.028;8.454;2023-01-24T21:29:26;102296.88;;;6.52;55.62
1652;BME280;823;49.028;8.454;2023-01-24T21:34:26;102295.25;;;6.60;55.30
1652;BME280;823;49.028;8.454;2023-01-24T21:39:27;102289.09;;;6.49;55.73
1652;BME280;823;49.028;8.454;2023-01-24T21:44:32;102285.75;;;6.55;55.72
1652;BME280;823;49.028;8.454;2023-01-24T21:49:33;102289.03;;;6.44;55.98
1652;BME280;823;49.028;8.454;2023-01-24T21:54:33;102283.97;;;6.51;55.67
1652;BME280;823;49.028;8.454;2023-01-24T21:59:36;102285.09;;;6.70;55.32
1652;BME280;823;49.028;8.454;2023-01-24T22:04:37;102285.69;;;6.50;55.80
1652;BME280;823;49.028;8.454;2023-01-24T22:09:37;102276.50;;;6.68;55.59
1652;BME280;823;49.028;8.454;2023-01-24T22:14:38;102280.06;;;6.76;55.00
1652;BME280;823;49.028;8.454;2023-01-24T22:19:45;102275.63;;;6.65;55.61
1652;BME280;823;49.028;8.454;2023-01-24T22:29:59;102271.44;;;6.74;55.50
1652;BME280;823;49.028;8.454;2023-01-24T22:34:59;102271.34;;;6.66;55.78
1652;BME280;823;49.028;8.454;2023-01-24T22:39:59;102271.56;;;6.83;55.30
1652;BME280;823;49.028;8.454;2023-01-24T22:45:00;102271.31;;;6.64;55.82
1652;BME280;823;49.028;8.454;2023-01-24T22:50:00;102274.69;;;6.60;55.80
1652;BME280;823;49.028;8.454;2023-01-24T22:55:01;102270.47;;;6.65;55.77
1652;BME280;823;49.028;8.454;2023-01-24T23:00:04;102261.78;;;6.56;56.17
1652;BME280;823;49.028;8.454;2023-01-24T23:05:06;102261.78;;;6.56;56.08
1652;BME280;823;49.028;8.454;2023-01-24T23:10:07;102251.47;;;6.53;55.94
1652;BME280;823;49.028;8.454;2023-01-24T23:15:11;102252.28;;;6.50;56.16
1652;BME280;823;49.028;8.454;2023-01-24T23:20:30;102254.91;;;6.55;56.06
1652;BME280;823;49.028;8.454;2023-01-24T23:25:48;102250.88;;;6.74;55.79
1652;BME280;823;49.028;8.454;2023-01-24T23:30:53;102254.19;;;6.63;56.25
1652;BME280;823;49.028;8.454;2023-01-24T23:35:56;102247.34;;;6.65;55.90
1652;BME280;823;49.028;8.454;2023-01-24T23:40:57;102242.97;;;6.60;56.03
1652;BME280;823;49.028;8.454;2023-01-24T23:45:57;102239.63;;;6.65;55.90
1652;BME280;823;49.028;8.454;2023-01-24T23:50:58;102240.25;;;6.49;56.44
1652;BME280;823;49.028;8.454;2023-01-24T23:55:59;102235.06;;;6.46;56.32
